sensor_id;sensor_type;location;lat;lon;timestamp;pressure;altitude;pressure_sealevel;temperature;humidity
59154;BME280;44935;48.944;9.418;2023-11-21T00:01:02;98082.46;;;12.24;49.77
59154;BME280;44935;48.944;9.418;2023-11-21T00:03:28;98080.44;;;12.35;48.74
59154;BME280;44935;48.944;9.418;2023-11-21T00:05:55;98078.29;;;12.67;47.98
59154;BME280;44935;48.944;9.418;2023-11-21T00:08:22;98078.67;;;12.54;48.40
59154;BME280;44935;48.944;9.418;2023-11-21T00:10:49;98081.36;;;12.77;47.67
59154;BME280;44935;48.944;9.418;2023-11-21T00:13:16;98075.39;;;12.94;46.86
59154;BME280;44935;48.944;9.418;2023-11-21T00:15:43;98075.06;;;12.62;47.17
59154;BME280;44935;48.944;9.418;2023-11-21T00:18:09;98074.77;;;12.71;47.28
59154;BME280;44935;48.944;9.418;2023-11-21T00:20:36;98075.91;;;12.41;48.29
59154;BME280;44935;48.944;9.418;2023-11-21T00:23:03;98072.57;;;10.63;51.18
59154;BME280;44935;48.944;9.418;2023-11-21T00:25:30;98074.21;;;12.27;48.58
59154;BME280;44935;48.944;9.418;2023-11-21T00:27:57;98073.61;;;12.05;48.77
59154;BME280;44935;48.944;9.418;2023-11-21T00:30:24;98075.29;;;11.88;48.93
59154;BME280;44935;48.944;9.418;2023-11-21T00:32:51;98068.77;;;12.57;47.75
59154;BME280;44935;48.944;9.418;2023-11-21T00:35:17;98071.09;;;12.89;47.41
59154;BME280;44935;48.944;9.418;2023-11-21T00:37:44;98068.52;;;12.84;47.47
59154;BME280;44935;48.944;9.418;2023-11-21T00:40:12;98071.16;;;12.14;48.55
59154;BME280;44935;48.944;9.418;2023-11-21T00:42:39;98070.63;;;12.23;48.73
59154;BME280;44935;48.944;9.418;2023-11-21T00:45:07;98065.20;;;12.63;47.99
59154;BME280;44935;48.944;9.418;2023-11-21T00:47:34;98064.07;;;10.09;52.96
59154;BME280;44935;48.944;9.418;2023-11-21T00:50:01;98067.60;;;8.97;55.92
59154;BME280;44935;48.944;9.418;2023-11-21T00:52:28;98068.34;;;9.19;56.26
59154;BME280;44935;48.944;9.418;2023-11-21T00:54:55;98070.29;;;11.42;51.23
59154;BME280;44935;48.944;9.418;2023-11-21T00:57:22;98071.06;;;11.94;50.45
59154;BME280;44935;48.944;9.418;2023-11-21T00:59:49;98071.57;;;11.21;51.51
59154;BME280;44935;48.944;9.418;2023-11-21T01:02:15;98072.59;;;12.31;49.82
59154;BME280;44935;48.944;9.418;2023-11-21T01:04:42;98071.73;;;12.07;49.16
59154;BME280;44935;48.944;9.418;2023-11-21T01:07:09;98072.99;;;12.20;48.93
59154;BME280;44935;48.944;9.418;2023-11-21T01:09:36;98066.26;;;9.50;53.60
59154;BME280;44935;48.944;9.418;2023-11-21T01:12:04;98067.93;;;9.04;55.70
59154;BME280;44935;48.944;9.418;2023-11-21T01:14:31;98065.46;;;8.45;58.08
59154;BME280;44935;48.944;9.418;2023-11-21T01:16:57;98064.39;;;7.23;61.99
59154;BME280;44935;48.944;9.418;2023-11-21T01:19:24;98058.75;;;10.54;54.43
59154;BME280;44935;48.944;9.418;2023-11-21T01:21:51;98059.74;;;11.32;52.40
59154;BME280;44935;48.944;9.418;2023-11-21T01:24:18;98059.76;;;11.81;51.46
59154;BME280;44935;48.944;9.418;2023-11-21T01:26:45;98061.15;;;12.36;50.19
59154;BME280;44935;48.944;9.418;2023-11-21T01:29:12;98062.48;;;12.40;49.09
59154;BME280;44935;48.944;9.418;2023-11-21T01:31:39;98065.04;;;12.42;48.93
59154;BME280;44935;48.944;9.418;2023-11-21T01:34:05;98064.08;;;11.02;51.32
59154;BME280;44935;48.944;9.418;2023-11-21T01:36:33;98065.72;;;12.85;48.98
59154;BME280;44935;48.944;9.418;2023-11-21T01:39:00;98067.53;;;12.07;49.15
59154;BME280;44935;48.944;9.418;2023-11-21T01:41:27;98065.76;;;11.79;49.88
59154;BME280;44935;48.944;9.418;2023-11-21T01:43:54;98063.48;;;12.82;48.05
59154;BME280;44935;48.944;9.418;2023-11-21T01:46:21;98067.21;;;12.28;48.91
59154;BME280;44935;48.944;9.418;2023-11-21T01:48:49;98065.31;;;11.74;50.27
59154;BME280;44935;48.944;9.418;2023-11-21T01:51:16;98062.10;;;9.81;53.09
59154;BME280;44935;48.944;9.418;2023-11-21T01:53:44;98062.12;;;11.98;49.94
59154;BME280;44935;48.944;9.418;2023-11-21T01:56:11;98062.53;;;11.50;50.55
59154;BME280;44935;48.944;9.418;2023-11-21T01:58:39;98064.60;;;12.31;49.12
59154;BME280;44935;48.944;9.418;2023-11-21T02:01:07;98068.32;;;12.02;49.60
59154;BME280;44935;48.944;9.418;2023-11-21T02:03:34;98068.77;;;11.86;50.12
59154;BME280;44935;48.944;9.418;2023-11-21T02:06:01;98068.82;;;12.58;49.05
59154;BME280;44935;48.944;9.418;2023-11-21T02:08:27;98072.30;;;11.69;50.40
59154;BME280;44935;48.944;9.418;2023-11-21T02:10:54;98069.13;;;11.64;51.42
59154;BME280;44935;48.944;9.418;2023-11-21T02:13:21;98070.19;;;11.89;50.90
59154;BME280;44935;48.944;9.418;2023-11-21T02:15:48;98066.83;;;11.93;50.23
59154;BME280;44935;48.944;9.418;2023-11-21T02:18:15;98066.53;;;12.16;49.94
59154;BME280;44935;48.944;9.418;2023-11-21T02:20:42;98062.15;;;12.30;50.29
59154;BME280;44935;48.944;9.418;2023-11-21T02:23:09;98063.72;;;12.05;49.45
59154;BME280;44935;48.944;9.418;2023-11-21T02:25:35;98058.42;;;12.53;48.87
59154;BME280;44935;48.944;9.418;2023-11-21T02:28:03;98060.38;;;12.67;48.58
59154;BME280;44935;48.944;9.418;2023-11-21T02:30:30;98057.58;;;12.40;48.93
59154;BME280;44935;48.944;9.418;2023-11-21T02:32:58;98058.77;;;11.99;48.85
59154;BME280;44935;48.944;9.418;2023-11-21T02:35:26;98060.38;;;11.85;49.82
59154;BME280;44935;48.944;9.418;2023-11-21T02:37:54;98059.26;;;10.69;52.51
59154;BME280;44935;48.944;9.418;2023-11-21T02:40:21;98054.28;;;10.79;53.16
59154;BME280;44935;48.944;9.418;2023-11-21T02:42:48;98053.79;;;10.72;52.78
59154;BME280;44935;48.944;9.418;2023-11-21T02:45:15;98049.92;;;10.99;53.12
59154;BME280;44935;48.944;9.418;2023-11-21T02:47:42;98051.74;;;11.07;52.81
59154;BME280;44935;48.944;9.418;2023-11-21T02:50:10;98049.95;;;11.58;52.23
59154;BME280;44935;48.944;9.418;2023-11-21T02:52:38;98047.59;;;11.22;52.13
59154;BME280;44935;48.944;9.418;2023-11-21T02:55:06;98045.70;;;11.16;52.30
59154;BME280;44935;48.944;9.418;2023-11-21T02:57:33;98046.73;;;11.54;52.04
59154;BME280;44935;48.944;9.418;2023-11-21T03:00:00;98048.74;;;11.87;51.90
59154;BME280;44935;48.944;9.418;2023-11-21T03:02:27;98049.00;;;11.57;51.61
59154;BME280;44935;48.944;9.418;2023-11-21T03:04:54;98048.36;;;11.90;51.28
59154;BME280;44935;48.944;9.418;2023-11-21T03:07:20;98049.77;;;11.70;51.31
59154;BME280;44935;48.944;9.418;2023-11-21T03:09:48;98048.62;;;11.79;51.10
59154;BME280;44935;48.944;9.418;2023-11-21T03:12:15;98049.71;;;11.63;51.45
59154;BME280;44935;48.944;9.418;2023-11-21T03:14:42;98051.38;;;11.90;51.08
59154;BME280;44935;48.944;9.418;2023-11-21T03:17:08;98054.96;;;11.81;50.76
59154;BME280;44935;48.944;9.418;2023-11-21T03:19:35;98057.48;;;10.84;52.49
59154;BME280;44935;48.944;9.418;2023-11-21T03:22:02;98054.51;;;11.73;51.15
59154;BME280;44935;48.944;9.418;2023-11-21T03:24:29;98056.24;;;11.51;51.86
59154;BME280;44935;48.944;9.418;2023-11-21T03:26:56;98057.75;;;11.77;50.43
59154;BME280;44935;48.944;9.418;2023-11-21T03:29:23;98057.09;;;12.81;48.45
59154;BME280;44935;48.944;9.418;2023-11-21T03:31:50;98055.03;;;12.86;47.93
59154;BME280;44935;48.944;9.418;2023-11-21T03:34:24;98052.46;;;13.15;47.99
59154;BME280;44935;48.944;9.418;2023-11-21T03:36:51;98052.14;;;13.38;47.58
59154;BME280;44935;48.944;9.418;2023-11-21T03:39:19;98054.54;;;12.83;47.99
59154;BME280;44935;48.944;9.418;2023-11-21T03:41:47;98049.73;;;13.31;47.45
59154;BME280;44935;48.944;9.418;2023-11-21T03:44:14;98061.32;;;12.63;48.70
59154;BME280;44935;48.944;9.418;2023-11-21T03:46:41;98056.80;;;12.87;48.30
59154;BME280;44935;48.944;9.418;2023-11-21T03:49:08;98066.24;;;12.17;49.60
59154;BME280;44935;48.944;9.418;2023-11-21T03:51:35;98069.16;;;12.38;50.13
59154;BME280;44935;48.944;9.418;2023-11-21T03:54:02;98068.48;;;11.92;50.27
59154;BME280;44935;48.944;9.418;2023-11-21T03:56:29;98065.28;;;12.14;50.69
59154;BME280;44935;48.944;9.418;2023-11-21T03:58:55;98067.90;;;11.87;50.50
59154;BME280;44935;48.944;9.418;2023-11-21T04:01:23;98072.98;;;12.19;49.83
59154;BME280;44935;48.944;9.418;2023-11-21T04:03:50;98068.62;;;12.23;49.99
59154;BME280;44935;48.944;9.418;2023-11-21T04:06:18;98065.20;;;12.22;50.08
59154;BME280;44935;48.944;9.418;2023-11-21T04:08:46;98066.01;;;12.18;49.84
59154;BME280;44935;48.944;9.418;2023-11-21T04:11:12;98065.42;;;12.58;49.04
59154;BME280;44935;48.944;9.418;2023-11-21T04:13:40;98063.45;;;13.04;48.33
59154;BME280;44935;48.944;9.418;2023-11-21T04:16:08;98060.02;;;13.03;47.70
59154;BME280;44935;48.944;9.418;2023-11-21T04:18:36;98061.76;;;13.25;47.73
59154;BME280;44935;48.944;9.418;2023-11-21T04:21:03;98062.53;;;13.12;47.61
59154;BME280;44935;48.944;9.418;2023-11-21T04:23:30;98061.65;;;13.29;47.16
59154;BME280;44935;48.944;9.418;2023-11-21T04:25:57;98063.80;;;13.45;46.75
59154;BME280;44935;48.944;9.418;2023-11-21T04:28:24;98063.41;;;13.20;47.28
59154;BME280;44935;48.944;9.418;2023-11-21T04:30:51;98067.36;;;12.39;48.46
59154;BME280;44935;48.944;9.418;2023-11-21T04:33:18;98064.76;;;13.19;47.34
59154;BME280;44935;48.944;9.418;2023-11-21T04:35:44;98067.48;;;13.23;47.20
59154;BME280;44935;48.944;9.418;2023-11-21T04:38:11;98068.67;;;13.44;46.72
59154;BME280;44935;48.944;9.418;2023-11-21T04:40:38;98073.71;;;12.79;48.10
59154;BME280;44935;48.944;9.418;2023-11-21T04:43:05;98075.48;;;12.59;48.66
59154;BME280;44935;48.944;9.418;2023-11-21T04:45:32;98078.54;;;13.06;48.37
59154;BME280;44935;48.944;9.418;2023-11-21T04:47:59;98080.85;;;12.52;48.93
59154;BME280;44935;48.944;9.418;2023-11-21T04:50:26;98084.16;;;12.89;49.16
59154;BME280;44935;48.944;9.418;2023-11-21T04:52:52;98079.26;;;12.17;49.85
59154;BME280;44935;48.944;9.418;2023-11-21T04:55:20;98078.58;;;12.10;50.60
59154;BME280;44935;48.944;9.418;2023-11-21T04:57:47;98081.82;;;11.86;50.99
59154;BME280;44935;48.944;9.418;2023-11-21T05:00:14;98087.64;;;12.11;51.03
59154;BME280;44935;48.944;9.418;2023-11-21T05:02:41;98085.00;;;11.44;51.07
59154;BME280;44935;48.944;9.418;2023-11-21T05:05:09;98086.12;;;11.41;51.71
59154;BME280;44935;48.944;9.418;2023-11-21T05:07:36;98086.35;;;11.38;52.13
59154;BME280;44935;48.944;9.418;2023-11-21T05:10:05;98081.90;;;11.33;52.16
59154;BME280;44935;48.944;9.418;2023-11-21T05:12:32;98085.60;;;11.36;51.69
59154;BME280;44935;48.944;9.418;2023-11-21T05:14:59;98087.52;;;10.94;51.95
59154;BME280;44935;48.944;9.418;2023-11-21T05:17:26;98087.74;;;11.23;52.08
59154;BME280;44935;48.944;9.418;2023-11-21T05:19:53;98094.28;;;11.06;51.97
59154;BME280;44935;48.944;9.418;2023-11-21T05:22:20;98098.12;;;11.17;51.67
59154;BME280;44935;48.944;9.418;2023-11-21T05:24:47;98101.71;;;11.09;52.37
59154;BME280;44935;48.944;9.418;2023-11-21T05:27:13;98104.35;;;11.09;51.95
59154;BME280;44935;48.944;9.418;2023-11-21T05:29:40;98105.25;;;11.46;51.52
59154;BME280;44935;48.944;9.418;2023-11-21T05:32:07;98111.54;;;11.32;51.71
59154;BME280;44935;48.944;9.418;2023-11-21T05:34:34;98111.31;;;11.64;51.41
59154;BME280;44935;48.944;9.418;2023-11-21T05:37:01;98112.46;;;11.76;51.24
59154;BME280;44935;48.944;9.418;2023-11-21T05:39:28;98114.00;;;11.22;51.74
59154;BME280;44935;48.944;9.418;2023-11-21T05:41:55;98120.99;;;11.62;51.62
59154;BME280;44935;48.944;9.418;2023-11-21T05:44:22;98123.28;;;12.02;50.66
59154;BME280;44935;48.944;9.418;2023-11-21T05:46:48;98126.15;;;12.06;50.06
59154;BME280;44935;48.944;9.418;2023-11-21T05:49:15;98126.63;;;12.54;49.69
59154;BME280;44935;48.944;9.418;2023-11-21T05:51:42;98126.15;;;12.56;48.81
59154;BME280;44935;48.944;9.418;2023-11-21T05:54:09;98129.99;;;12.78;48.54
59154;BME280;44935;48.944;9.418;2023-11-21T05:56:36;98129.58;;;12.53;48.59
59154;BME280;44935;48.944;9.418;2023-11-21T05:59:03;98129.97;;;12.92;48.06
59154;BME280;44935;48.944;9.418;2023-11-21T06:01:30;98132.43;;;12.57;48.46
59154;BME280;44935;48.944;9.418;2023-11-21T06:03:56;98133.92;;;12.32;49.62
59154;BME280;44935;48.944;9.418;2023-11-21T06:06:23;98135.71;;;12.21;49.69
59154;BME280;44935;48.944;9.418;2023-11-21T06:08:50;98141.33;;;12.70;49.57
59154;BME280;44935;48.944;9.418;2023-11-21T06:11:17;98143.81;;;12.51;49.50
59154;BME280;44935;48.944;9.418;2023-11-21T06:13:44;98144.32;;;12.81;48.88
59154;BME280;44935;48.944;9.418;2023-11-21T06:16:11;98151.58;;;12.29;49.13
59154;BME280;44935;48.944;9.418;2023-11-21T06:18:38;98150.55;;;11.47;50.65
59154;BME280;44935;48.944;9.418;2023-11-21T06:21:05;98157.76;;;12.06;49.79
59154;BME280;44935;48.944;9.418;2023-11-21T06:23:32;98157.09;;;12.24;49.80
59154;BME280;44935;48.944;9.418;2023-11-21T06:25:59;98157.47;;;11.81;50.14
59154;BME280;44935;48.944;9.418;2023-11-21T06:28:26;98163.20;;;12.19;49.46
59154;BME280;44935;48.944;9.418;2023-11-21T06:30:53;98162.71;;;12.27;49.72
59154;BME280;44935;48.944;9.418;2023-11-21T06:33:20;98163.69;;;12.55;49.22
59154;BME280;44935;48.944;9.418;2023-11-21T06:35:46;98166.34;;;11.88;49.78
59154;BME280;44935;48.944;9.418;2023-11-21T06:38:13;98163.20;;;12.21;50.19
59154;BME280;44935;48.944;9.418;2023-11-21T06:40:40;98167.17;;;12.19;49.40
59154;BME280;44935;48.944;9.418;2023-11-21T06:43:07;98171.25;;;12.51;48.86
59154;BME280;44935;48.944;9.418;2023-11-21T06:45:34;98174.32;;;12.62;49.07
59154;BME280;44935;48.944;9.418;2023-11-21T06:48:01;98175.00;;;12.67;48.93
59154;BME280;44935;48.944;9.418;2023-11-21T06:50:28;98176.45;;;13.49;48.02
59154;BME280;44935;48.944;9.418;2023-11-21T06:52:54;98178.01;;;12.83;48.25
59154;BME280;44935;48.944;9.418;2023-11-21T06:55:21;98182.57;;;12.62;48.25
59154;BME280;44935;48.944;9.418;2023-11-21T06:57:48;98182.92;;;12.58;48.58
59154;BME280;44935;48.944;9.418;2023-11-21T07:00:16;98183.42;;;12.97;48.94
59154;BME280;44935;48.944;9.418;2023-11-21T07:02:44;98187.27;;;12.67;49.40
59154;BME280;44935;48.944;9.418;2023-11-21T07:05:11;98192.73;;;12.40;49.02
59154;BME280;44935;48.944;9.418;2023-11-21T07:07:38;98200.03;;;12.68;48.65
59154;BME280;44935;48.944;9.418;2023-11-21T07:10:06;98202.58;;;12.81;48.40
59154;BME280;44935;48.944;9.418;2023-11-21T07:12:33;98204.49;;;13.10;47.96
59154;BME280;44935;48.944;9.418;2023-11-21T07:15:00;98207.34;;;12.70;48.20
59154;BME280;44935;48.944;9.418;2023-11-21T07:17:27;98208.21;;;13.35;47.38
59154;BME280;44935;48.944;9.418;2023-11-21T07:19:53;98212.66;;;13.17;47.25
59154;BME280;44935;48.944;9.418;2023-11-21T07:22:20;98212.18;;;13.14;47.23
59154;BME280;44935;48.944;9.418;2023-11-21T07:24:48;98218.33;;;13.36;47.40
59154;BME280;44935;48.944;9.418;2023-11-21T07:27:16;98217.93;;;13.40;47.34
59154;BME280;44935;48.944;9.418;2023-11-21T07:29:43;98222.15;;;13.03;47.66
59154;BME280;44935;48.944;9.418;2023-11-21T07:32:09;98220.39;;;13.28;47.71
59154;BME280;44935;48.944;9.418;2023-11-21T07:34:36;98223.35;;;12.97;47.94
59154;BME280;44935;48.944;9.418;2023-11-21T07:37:03;98224.57;;;13.47;47.30
59154;BME280;44935;48.944;9.418;2023-11-21T07:39:30;98228.53;;;13.21;47.51
59154;BME280;44935;48.944;9.418;2023-11-21T07:41:57;98229.61;;;13.35;47.31
59154;BME280;44935;48.944;9.418;2023-11-21T07:44:24;98234.29;;;13.60;46.54
59154;BME280;44935;48.944;9.418;2023-11-21T07:46:51;98235.84;;;13.27;47.02
59154;BME280;44935;48.944;9.418;2023-11-21T07:49:17;98236.45;;;13.60;46.50
59154;BME280;44935;48.944;9.418;2023-11-21T07:51:44;98242.32;;;12.91;47.66
59154;BME280;44935;48.944;9.418;2023-11-21T07:54:11;98243.19;;;13.23;48.00
59154;BME280;44935;48.944;9.418;2023-11-21T07:56:38;98247.56;;;12.88;48.09
59154;BME280;44935;48.944;9.418;2023-11-21T07:59:05;98250.28;;;13.24;48.09
59154;BME280;44935;48.944;9.418;2023-11-21T08:01:32;98249.27;;;13.34;47.95
59154;BME280;44935;48.944;9.418;2023-11-21T08:03:58;98249.12;;;13.08;48.61
59154;BME280;44935;48.944;9.418;2023-11-21T08:06:25;98252.22;;;13.48;47.99
59154;BME280;44935;48.944;9.418;2023-11-21T08:08:52;98254.73;;;13.21;48.34
59154;BME280;44935;48.944;9.418;2023-11-21T08:11:19;98250.49;;;12.73;48.61
59154;BME280;44935;48.944;9.418;2023-11-21T08:13:46;98258.24;;;13.06;48.01
59154;BME280;44935;48.944;9.418;2023-11-21T08:16:13;98263.15;;;13.35;47.29
59154;BME280;44935;48.944;9.418;2023-11-21T08:18:40;98268.05;;;13.65;46.75
59154;BME280;44935;48.944;9.418;2023-11-21T08:21:07;98269.79;;;13.43;47.14
59154;BME280;44935;48.944;9.418;2023-11-21T08:23:35;98266.84;;;13.42;47.12
59154;BME280;44935;48.944;9.418;2023-11-21T08:26:02;98268.20;;;13.08;47.88
59154;BME280;44935;48.944;9.418;2023-11-21T08:28:29;98268.97;;;13.08;48.54
59154;BME280;44935;48.944;9.418;2023-11-21T08:30:56;98266.23;;;13.17;48.27
59154;BME280;44935;48.944;9.418;2023-11-21T08:33:23;98262.46;;;13.01;48.50
59154;BME280;44935;48.944;9.418;2023-11-21T08:35:49;98265.45;;;12.89;48.89
59154;BME280;44935;48.944;9.418;2023-11-21T08:38:16;98262.89;;;12.65;49.13
59154;BME280;44935;48.944;9.418;2023-11-21T08:40:48;98265.29;;;12.18;50.69
59154;BME280;44935;48.944;9.418;2023-11-21T08:43:15;98265.67;;;12.31;50.15
59154;BME280;44935;48.944;9.418;2023-11-21T08:45:42;98268.36;;;12.61;50.14
59154;BME280;44935;48.944;9.418;2023-11-21T08:48:09;98266.03;;;12.35;50.25
59154;BME280;44935;48.944;9.418;2023-11-21T08:50:36;98268.74;;;12.69;50.61
59154;BME280;44935;48.944;9.418;2023-11-21T08:53:03;98273.64;;;12.40;50.77
59154;BME280;44935;48.944;9.418;2023-11-21T08:55:30;98271.12;;;12.31;50.55
59154;BME280;44935;48.944;9.418;2023-11-21T08:57:57;98275.33;;;12.15;50.51
59154;BME280;44935;48.944;9.418;2023-11-21T09:00:23;98279.64;;;11.81;50.75
59154;BME280;44935;48.944;9.418;2023-11-21T09:02:50;98280.14;;;12.34;51.91
59154;BME280;44935;48.944;9.418;2023-11-21T09:05:17;98282.12;;;12.28;51.25
59154;BME280;44935;48.944;9.418;2023-11-21T09:07:44;98287.82;;;12.17;51.89
59154;BME280;44935;48.944;9.418;2023-11-21T09:10:11;98289.27;;;11.22;53.52
59154;BME280;44935;48.944;9.418;2023-11-21T09:12:38;98290.01;;;11.55;53.78
59154;BME280;44935;48.944;9.418;2023-11-21T09:15:06;98291.32;;;11.06;54.39
59154;BME280;44935;48.944;9.418;2023-11-21T09:17:34;98289.85;;;10.40;55.13
59154;BME280;44935;48.944;9.418;2023-11-21T09:20:01;98292.09;;;10.59;54.81
59154;BME280;44935;48.944;9.418;2023-11-21T09:22:29;98292.84;;;10.10;55.54
59154;BME280;44935;48.944;9.418;2023-11-21T09:24:55;98298.67;;;9.79;56.14
59154;BME280;44935;48.944;9.418;2023-11-21T09:27:22;98300.02;;;10.44;56.03
59154;BME280;44935;48.944;9.418;2023-11-21T09:29:49;98302.91;;;10.68;55.29
59154;BME280;44935;48.944;9.418;2023-11-21T09:32:16;98304.12;;;11.11;54.09
59154;BME280;44935;48.944;9.418;2023-11-21T09:34:43;98308.08;;;11.32;53.89
59154;BME280;44935;48.944;9.418;2023-11-21T09:37:10;98303.64;;;11.84;53.29
59154;BME280;44935;48.944;9.418;2023-11-21T09:39:37;98305.48;;;11.13;54.39
59154;BME280;44935;48.944;9.418;2023-11-21T09:42:10;98309.44;;;11.42;53.47
59154;BME280;44935;48.944;9.418;2023-11-21T09:44:45;98306.91;;;11.84;52.67
59154;BME280;44935;48.944;9.418;2023-11-21T09:47:15;98307.97;;;12.00;52.57
59154;BME280;44935;48.944;9.418;2023-11-21T09:49:47;98313.66;;;11.73;52.10
59154;BME280;44935;48.944;9.418;2023-11-21T09:52:21;98319.23;;;11.62;53.71
59154;BME280;44935;48.944;9.418;2023-11-21T09:54:50;98316.18;;;10.90;54.58
59154;BME280;44935;48.944;9.418;2023-11-21T09:57:19;98318.92;;;10.59;54.11
59154;BME280;44935;48.944;9.418;2023-11-21T09:59:53;98316.76;;;10.70;55.99
59154;BME280;44935;48.944;9.418;2023-11-21T10:02:22;98320.04;;;11.15;55.31
59154;BME280;44935;48.944;9.418;2023-11-21T10:04:51;98320.04;;;11.45;53.43
59154;BME280;44935;48.944;9.418;2023-11-21T10:07:19;98321.42;;;11.31;52.88
59154;BME280;44935;48.944;9.418;2023-11-21T10:09:47;98323.49;;;11.91;52.92
59154;BME280;44935;48.944;9.418;2023-11-21T10:12:15;98327.44;;;12.63;51.25
59154;BME280;44935;48.944;9.418;2023-11-21T10:14:43;98326.24;;;12.73;50.86
59154;BME280;44935;48.944;9.418;2023-11-21T10:17:10;98328.10;;;12.43;50.98
59154;BME280;44935;48.944;9.418;2023-11-21T10:19:39;98327.90;;;12.48;51.62
59154;BME280;44935;48.944;9.418;2023-11-21T10:22:07;98331.31;;;12.06;51.67
59154;BME280;44935;48.944;9.418;2023-11-21T10:24:35;98335.49;;;11.69;53.42
59154;BME280;44935;48.944;9.418;2023-11-21T10:27:04;98332.30;;;11.51;53.26
59154;BME280;44935;48.944;9.418;2023-11-21T10:29:31;98330.53;;;11.35;53.66
59154;BME280;44935;48.944;9.418;2023-11-21T10:31:59;98334.19;;;11.81;51.50
59154;BME280;44935;48.944;9.418;2023-11-21T10:34:26;98332.92;;;11.94;51.34
59154;BME280;44935;48.944;9.418;2023-11-21T10:36:53;98331.99;;;12.02;51.95
59154;BME280;44935;48.944;9.418;2023-11-21T10:39:20;98332.68;;;12.82;50.98
59154;BME280;44935;48.944;9.418;2023-11-21T10:41:48;98330.55;;;12.81;50.50
59154;BME280;44935;48.944;9.418;2023-11-21T10:44:16;98332.65;;;12.43;51.12
59154;BME280;44935;48.944;9.418;2023-11-21T10:46:43;98333.06;;;12.11;52.27
59154;BME280;44935;48.944;9.418;2023-11-21T10:49:10;98336.80;;;12.19;53.27
59154;BME280;44935;48.944;9.418;2023-11-21T10:51:37;98335.54;;;11.91;53.13
59154;BME280;44935;48.944;9.418;2023-11-21T10:54:10;98334.93;;;11.60;53.25
59154;BME280;44935;48.944;9.418;2023-11-21T10:56:37;98336.22;;;11.54;52.07
59154;BME280;44935;48.944;9.418;2023-11-21T10:59:05;98333.47;;;11.82;52.43
59154;BME280;44935;48.944;9.418;2023-11-21T11:01:35;98336.53;;;11.73;52.59
59154;BME280;44935;48.944;9.418;2023-11-21T11:04:05;98336.89;;;11.95;52.03
59154;BME280;44935;48.944;9.418;2023-11-21T11:06:33;98335.59;;;12.24;52.93
59154;BME280;44935;48.944;9.418;2023-11-21T11:09:01;98334.98;;;12.87;51.88
59154;BME280;44935;48.944;9.418;2023-11-21T11:11:30;98336.39;;;11.97;51.84
59154;BME280;44935;48.944;9.418;2023-11-21T11:13:58;98338.32;;;12.83;51.36
59154;BME280;44935;48.944;9.418;2023-11-21T11:16:27;98331.92;;;12.62;50.05
59154;BME280;44935;48.944;9.418;2023-11-21T11:18:55;98329.11;;;12.68;50.51
59154;BME280;44935;48.944;9.418;2023-11-21T11:21:30;98332.50;;;12.61;51.02
59154;BME280;44935;48.944;9.418;2023-11-21T11:24:49;98333.18;;;11.91;52.46
59154;BME280;44935;48.944;9.418;2023-11-21T11:27:28;98334.26;;;12.93;50.83
59154;BME280;44935;48.944;9.418;2023-11-21T11:30:06;98333.37;;;13.29;50.34
59154;BME280;44935;48.944;9.418;2023-11-21T11:32:47;98336.60;;;13.69;49.81
59154;BME280;44935;48.944;9.418;2023-11-21T11:35:22;98339.54;;;13.68;49.51
59154;BME280;44935;48.944;9.418;2023-11-21T11:37:51;98341.37;;;13.80;49.90
59154;BME280;44935;48.944;9.418;2023-11-21T11:40:18;98338.94;;;13.36;50.34
59154;BME280;44935;48.944;9.418;2023-11-21T11:42:56;98338.97;;;13.14;49.85
59154;BME280;44935;48.944;9.418;2023-11-21T11:45:31;98333.70;;;12.63;50.22
59154;BME280;44935;48.944;9.418;2023-11-21T11:48:00;98337.61;;;12.45;50.06
59154;BME280;44935;48.944;9.418;2023-11-21T11:50:27;98342.04;;;12.56;50.70
59154;BME280;44935;48.944;9.418;2023-11-21T11:52:55;98340.41;;;12.49;50.44
59154;BME280;44935;48.944;9.418;2023-11-21T11:55:23;98338.76;;;12.02;51.32
59154;BME280;44935;48.944;9.418;2023-11-21T11:57:52;98339.61;;;11.82;51.95
59154;BME280;44935;48.944;9.418;2023-11-21T12:00:21;98340.55;;;12.22;51.10
59154;BME280;44935;48.944;9.418;2023-11-21T12:02:51;98337.44;;;12.82;50.85
59154;BME280;44935;48.944;9.418;2023-11-21T12:05:19;98344.70;;;12.07;50.34
59154;BME280;44935;48.944;9.418;2023-11-21T12:07:49;98347.35;;;12.59;50.01
59154;BME280;44935;48.944;9.418;2023-11-21T12:10:18;98349.55;;;12.67;49.24
59154;BME280;44935;48.944;9.418;2023-11-21T12:12:47;98349.45;;;11.81;50.49
59154;BME280;44935;48.944;9.418;2023-11-21T12:15:15;98347.47;;;12.83;49.95
59154;BME280;44935;48.944;9.418;2023-11-21T12:17:43;98346.98;;;12.00;51.51
59154;BME280;44935;48.944;9.418;2023-11-21T12:20:12;98351.43;;;11.86;51.57
59154;BME280;44935;48.944;9.418;2023-11-21T12:22:41;98352.16;;;13.28;49.58
59154;BME280;44935;48.944;9.418;2023-11-21T12:25:08;98353.61;;;12.85;47.74
59154;BME280;44935;48.944;9.418;2023-11-21T12:27:34;98353.71;;;13.07;47.84
59154;BME280;44935;48.944;9.418;2023-11-21T12:30:01;98355.38;;;13.04;48.18
59154;BME280;44935;48.944;9.418;2023-11-21T12:32:28;98355.28;;;12.28;49.96
59154;BME280;44935;48.944;9.418;2023-11-21T12:34:55;98355.33;;;13.28;49.34
59154;BME280;44935;48.944;9.418;2023-11-21T12:37:22;98357.75;;;12.39;51.85
59154;BME280;44935;48.944;9.418;2023-11-21T12:39:49;98359.45;;;12.02;51.78
59154;BME280;44935;48.944;9.418;2023-11-21T12:42:16;98362.28;;;13.37;50.12
59154;BME280;44935;48.944;9.418;2023-11-21T12:44:46;98367.79;;;12.07;52.63
59154;BME280;44935;48.944;9.418;2023-11-21T12:47:17;98366.62;;;11.60;53.36
59154;BME280;44935;48.944;9.418;2023-11-21T12:49:44;98368.71;;;11.99;53.30
59154;BME280;44935;48.944;9.418;2023-11-21T12:52:11;98369.01;;;12.18;52.69
59154;BME280;44935;48.944;9.418;2023-11-21T12:54:38;98370.34;;;11.86;53.47
59154;BME280;44935;48.944;9.418;2023-11-21T12:57:04;98374.12;;;12.10;52.55
59154;BME280;44935;48.944;9.418;2023-11-21T12:59:31;98369.72;;;12.63;51.82
59154;BME280;44935;48.944;9.418;2023-11-21T13:01:58;98376.51;;;12.70;51.30